createdAt,value
2023-12-10T00:02:01.774Z,27.50
2023-12-10T00:07:08.210Z,25.90
2023-12-10T00:12:14.252Z,27.50
2023-12-10T00:17:20.668Z,25.70
2023-12-10T00:22:27.544Z,25.00
2023-12-10T00:27:34.013Z,26.50
2023-12-10T00:32:39.933Z,32.40
2023-12-10T00:37:45.862Z,33.20
2023-12-10T00:42:52.544Z,28.80
2023-12-10T00:47:58.832Z,27.00
2023-12-10T00:53:06.494Z,25.60
2023-12-10T00:58:12.948Z,26.90
2023-12-10T01:03:19.726Z,26.50
2023-12-10T01:08:25.707Z,25.60
2023-12-10T01:13:31.668Z,24.10
2023-12-10T01:18:38.978Z,23.30
2023-12-10T01:23:45.059Z,22.40
2023-12-10T01:28:51.448Z,23.50
2023-12-10T01:33:58.334Z,22.80
2023-12-10T01:44:09.250Z,19.80
2023-12-10T01:49:15.934Z,21.70
2023-12-10T01:54:25.993Z,24.80
2023-12-10T01:59:32.570Z,24.80
2023-12-10T02:04:38.694Z,24.10
2023-12-10T02:09:44.745Z,25.70
2023-12-10T02:14:50.645Z,21.10
2023-12-10T02:19:56.629Z,24.30
2023-12-10T02:25:07.798Z,23.00
2023-12-10T02:30:16.877Z,23.70
2023-12-10T02:35:23.150Z,23.40
2023-12-10T02:40:29.143Z,23.00
2023-12-10T02:45:35.245Z,23.40
2023-12-10T02:50:41.287Z,23.80
2023-12-10T02:55:47.588Z,22.20
2023-12-10T03:00:53.722Z,22.50
2023-12-10T03:06:00.419Z,24.10
2023-12-10T03:11:06.852Z,24.30
2023-12-10T03:16:13.047Z,23.80
2023-12-10T03:21:19.015Z,24.10
2023-12-10T03:26:24.962Z,23.10
2023-12-10T03:31:30.904Z,23.80
2023-12-10T03:36:36.857Z,23.10
2023-12-10T03:41:42.934Z,21.40
2023-12-10T03:46:48.883Z,23.10
2023-12-10T03:51:54.920Z,22.60
2023-12-10T03:57:01.009Z,21.00
2023-12-10T04:02:07.278Z,21.40
2023-12-10T04:07:13.654Z,20.90
2023-12-10T04:12:19.588Z,21.50
2023-12-10T04:17:27.042Z,20.00
2023-12-10T04:22:33.004Z,20.30
2023-12-10T04:27:38.995Z,21.40
2023-12-10T04:32:45.043Z,18.60
2023-12-10T04:37:51.106Z,21.00
2023-12-10T04:42:57.133Z,18.80
2023-12-10T04:48:03.272Z,21.40
2023-12-10T04:53:09.352Z,21.90
2023-12-10T04:58:15.987Z,20.30
2023-12-10T05:03:22.310Z,22.10
2023-12-10T05:08:28.390Z,19.40
2023-12-10T05:13:34.858Z,21.60
2023-12-10T05:18:40.967Z,20.20
2023-12-10T05:23:47.067Z,21.40
2023-12-10T05:28:53.025Z,24.40
2023-12-10T05:33:59.105Z,23.90
2023-12-10T05:39:05.567Z,26.10
2023-12-10T05:44:11.510Z,25.60
2023-12-10T05:49:17.541Z,24.60
2023-12-10T05:54:23.890Z,23.00
2023-12-10T05:59:30.162Z,37.80
2023-12-10T06:04:36.177Z,38.60
2023-12-10T06:09:42.335Z,36.60
2023-12-10T06:14:48.313Z,55.10
2023-12-10T06:19:54.590Z,53.70
2023-12-10T06:25:00.636Z,47.90
2023-12-10T06:30:09.988Z,31.50
2023-12-10T06:35:16.130Z,28.20
2023-12-10T06:40:22.066Z,36.10
2023-12-10T06:45:28.292Z,27.20
2023-12-10T06:50:34.269Z,24.30
2023-12-10T06:55:40.819Z,25.40
2023-12-10T07:00:46.889Z,23.50
2023-12-10T07:05:54.140Z,23.70
2023-12-10T07:11:01.013Z,26.10
2023-12-10T07:16:07.711Z,23.80
2023-12-10T07:21:14.670Z,23.50
2023-12-10T07:31:31.329Z,18.20
2023-12-10T07:36:40.320Z,20.80
2023-12-10T07:41:46.702Z,20.30
2023-12-10T07:46:52.807Z,20.70
2023-12-10T07:51:58.833Z,44.50
2023-12-10T07:57:05.071Z,69.20
2023-12-10T08:02:11.095Z,48.70
2023-12-10T08:07:17.285Z,41.80
2023-12-10T08:12:23.451Z,29.60
2023-12-10T08:17:29.393Z,25.20
2023-12-10T08:22:35.527Z,21.00
2023-12-10T08:27:41.681Z,21.60
2023-12-10T08:32:47.659Z,22.50
2023-12-10T08:37:53.577Z,23.70
2023-12-10T08:42:59.545Z,20.80
2023-12-10T08:48:06.176Z,15.00
2023-12-10T08:53:12.114Z,14.80
2023-12-10T08:58:19.456Z,12.80
2023-12-10T09:03:25.516Z,11.50
2023-12-10T09:08:31.662Z,12.30
2023-12-10T09:13:38.115Z,11.90
2023-12-10T09:18:45.020Z,11.90
2023-12-10T09:23:51.427Z,11.10
2023-12-10T09:28:57.428Z,10.40
2023-12-10T09:34:03.528Z,9.80
2023-12-10T09:39:10.206Z,10.00
2023-12-10T09:44:16.192Z,9.10
2023-12-10T09:49:24.579Z,7.40
2023-12-10T09:54:31.112Z,8.20
2023-12-10T09:59:37.419Z,9.40
2023-12-10T10:04:44.832Z,8.70
2023-12-10T10:09:52.608Z,7.90
2023-12-10T10:14:59.844Z,8.60
2023-12-10T10:20:06.869Z,9.10
2023-12-10T10:25:14.216Z,8.80
2023-12-10T10:30:20.517Z,7.50
2023-12-10T10:35:26.574Z,8.10
2023-12-10T10:40:33.056Z,9.40
2023-12-10T10:45:47.163Z,8.00
2023-12-10T10:50:55.529Z,8.90
2023-12-10T10:56:02.430Z,7.90
2023-12-10T11:01:28.775Z,8.90
2023-12-10T11:06:37.127Z,8.80
2023-12-10T11:11:43.295Z,9.60
2023-12-10T11:16:52.738Z,8.10
2023-12-10T11:21:58.748Z,6.70
2023-12-10T11:27:04.923Z,7.10
2023-12-10T11:32:11.427Z,7.70
2023-12-10T11:37:17.400Z,7.30
2023-12-10T11:42:23.369Z,7.80
2023-12-10T11:47:30.268Z,7.00
2023-12-10T11:52:37.124Z,6.90
2023-12-10T11:57:47.053Z,8.40
2023-12-10T12:02:54.274Z,7.00
2023-12-10T12:08:02.011Z,6.70
2023-12-10T12:13:08.919Z,7.20
2023-12-10T12:18:15.207Z,6.50
2023-12-10T12:23:21.142Z,6.20
2023-12-10T12:28:27.378Z,6.20
2023-12-10T12:33:33.617Z,6.20
2023-12-10T12:38:39.613Z,6.00
2023-12-10T12:43:45.560Z,5.30
2023-12-10T12:48:51.753Z,7.00
2023-12-10T12:54:11.884Z,5.90
2023-12-10T12:59:20.085Z,6.50
2023-12-10T13:04:26.271Z,7.00
2023-12-10T13:09:32.541Z,7.30
2023-12-10T13:14:39.002Z,6.90
2023-12-10T13:19:45.343Z,7.80
2023-12-10T13:24:51.382Z,7.80
2023-12-10T13:29:57.579Z,8.50
2023-12-10T13:35:03.826Z,8.30
2023-12-10T13:40:13.045Z,9.80
2023-12-10T13:45:19.001Z,8.70
2023-12-10T13:50:25.507Z,8.30
2023-12-10T13:55:31.906Z,9.00
2023-12-10T14:00:37.949Z,10.10
2023-12-10T14:05:44.577Z,7.90
2023-12-10T14:10:50.616Z,9.20
2023-12-10T14:15:57.343Z,9.10
2023-12-10T14:26:07.859Z,8.60
2023-12-10T14:31:13.780Z,12.60
2023-12-10T14:36:19.776Z,10.20
2023-12-10T14:41:25.881Z,9.00
2023-12-10T14:46:33.416Z,10.70
2023-12-10T14:51:39.487Z,12.80
2023-12-10T14:56:47.604Z,12.60
2023-12-10T15:02:01.842Z,12.00
2023-12-10T15:07:15.335Z,10.70
2023-12-10T15:12:21.271Z,10.20
2023-12-10T15:17:27.496Z,11.50
2023-12-10T15:22:33.714Z,11.70
2023-12-10T15:27:39.872Z,12.40
2023-12-10T15:32:46.739Z,12.50
2023-12-10T15:37:52.925Z,13.50
2023-12-10T15:42:58.894Z,12.40
2023-12-10T15:48:05.142Z,11.10
2023-12-10T15:53:11.245Z,10.10
2023-12-10T15:58:17.873Z,8.90
2023-12-10T16:08:30.670Z,7.90
2023-12-10T16:13:36.592Z,9.00
2023-12-10T16:18:45.651Z,10.50
2023-12-10T16:23:53.051Z,13.40
2023-12-10T16:28:59.952Z,13.20
2023-12-10T16:34:05.932Z,13.80
2023-12-10T16:39:12.252Z,11.70
2023-12-10T16:44:18.109Z,12.60
2023-12-10T16:49:24.166Z,12.50
2023-12-10T16:54:30.313Z,12.10
2023-12-10T16:59:36.826Z,11.30
2023-12-10T17:04:42.947Z,11.70
2023-12-10T17:09:49.213Z,11.40
2023-12-10T17:14:55.372Z,10.00
2023-12-10T17:20:01.712Z,13.40
2023-12-10T17:25:10.731Z,12.50
2023-12-10T17:30:18.253Z,12.00
2023-12-10T17:35:24.215Z,13.20
2023-12-10T17:40:30.380Z,12.20
2023-12-10T17:45:36.470Z,13.50
2023-12-10T17:50:42.506Z,13.10
2023-12-10T17:55:48.646Z,12.50
2023-12-10T18:00:55.455Z,13.10
2023-12-10T18:06:01.665Z,11.90
2023-12-10T18:11:07.870Z,12.70
2023-12-10T18:16:23.106Z,10.70
2023-12-10T18:21:29.102Z,8.40
2023-12-10T18:26:35.025Z,10.50
2023-12-10T18:31:40.880Z,8.70
2023-12-10T18:36:46.823Z,8.20
2023-12-10T18:41:52.740Z,7.60
2023-12-10T18:46:58.641Z,8.80
2023-12-10T18:52:08.203Z,7.40
2023-12-10T18:57:14.207Z,10.20
2023-12-10T19:02:20.730Z,8.90
2023-12-10T19:07:26.814Z,9.30
2023-12-10T19:12:32.958Z,7.80
2023-12-10T19:17:39.697Z,8.60
2023-12-10T19:22:45.679Z,9.40
2023-12-10T19:27:51.727Z,7.30
2023-12-10T19:32:58.567Z,7.40
2023-12-10T19:38:04.564Z,7.80
2023-12-10T19:43:10.569Z,7.90
2023-12-10T19:48:16.963Z,7.80
2023-12-10T19:53:23.016Z,6.40
2023-12-10T19:58:29.595Z,8.70
2023-12-10T20:03:35.595Z,7.90
2023-12-10T20:08:43.524Z,6.90
2023-12-10T20:13:49.656Z,7.50
2023-12-10T20:18:55.770Z,7.10
2023-12-10T20:24:02.229Z,7.70
2023-12-10T20:29:08.861Z,6.30
2023-12-10T20:34:26.606Z,8.20
2023-12-10T20:39:38.656Z,7.60
2023-12-10T20:44:44.619Z,6.30
2023-12-10T20:49:50.509Z,7.00
2023-12-10T20:54:56.823Z,7.10
2023-12-10T21:00:05.688Z,6.40
2023-12-10T21:05:12.379Z,6.80
2023-12-10T21:10:18.430Z,6.70
2023-12-10T21:15:24.690Z,6.40
2023-12-10T21:20:31.154Z,5.50
2023-12-10T21:25:38.378Z,6.50
2023-12-10T21:30:44.248Z,6.70
2023-12-10T21:35:50.188Z,6.00
2023-12-10T21:40:56.073Z,6.70
2023-12-10T21:46:02.055Z,6.70
2023-12-10T21:51:09.654Z,5.80
2023-12-10T21:56:16.215Z,5.80
2023-12-10T22:06:28.101Z,4.30
2023-12-10T22:11:34.293Z,4.80
2023-12-10T22:16:40.391Z,4.40
2023-12-10T22:21:46.610Z,4.70
2023-12-10T22:26:52.506Z,3.60
2023-12-10T22:31:58.369Z,5.30
2023-12-10T22:37:04.459Z,4.70
2023-12-10T22:42:10.874Z,4.70
2023-12-10T22:47:17.365Z,5.90
2023-12-10T22:57:28.608Z,4.40
2023-12-10T23:02:34.697Z,5.30
2023-12-10T23:07:40.685Z,4.70
2023-12-10T23:12:46.686Z,4.60
2023-12-10T23:17:52.595Z,4.60
2023-12-10T23:22:58.466Z,4.70
2023-12-10T23:28:04.424Z,4.90
2023-12-10T23:33:10.417Z,4.60
2023-12-10T23:38:16.983Z,4.50
2023-12-10T23:48:27.170Z,3.90
2023-12-10T23:53:33.310Z,3.90
2023-12-10T23:58:40.808Z,4.40
